Archival Weather

Chicago O'Hare International

Chicago, Illinois (KORD)

Report from: Tuesday, September 19, 2023 1:51 PM CDT
Current time: Monday, June 17, 2024 5:26 AM CDT

Current weather – Weather history – Daily summaries
Weather forecast

Present weatherLight rain
Temperature16.1°C (61.0°F)
Dew point13.3°C (55.9°F)
Winds 7 kts (3.6 m/s, 8.1 mph) South (170°)
Visibility10 mi. (16.1 km)
Clouds Few clouds 4,500 ft. (1,372 m)
Scattered clouds 8,500 ft. (2,591 m)
Ceiling: Overcast 10,000 ft. (3,048 m)
Altimeter30.01 in.Hg (1016 mB)
Precipitiation0.01 in. (0 mm)
Relative humidity83 %
Density altitude239 ft. (73 m)
Sea-level pressure101.6 kPa (1016 mB, 30.01 in.Hg)
Remarks Automated weather observing station with precipitation discriminator
Flight conditions Visual Meteorological Conditions
Raw dataKORD 191851Z 17007KT 10SM -RA FEW045 SCT085 OVC100 16/13 A3001 RMK AO2 SLP163 P0001 T01610133
An error has occurred. This application may no longer respond until reloaded. Reload 🗙